createdAt,value
2023-04-26T00:00:58.121Z,9.719137
2023-04-26T00:01:58.109Z,9.719047
2023-04-26T00:02:58.205Z,9.719238
2023-04-26T00:03:58.327Z,9.719235
2023-04-26T00:04:58.413Z,9.719216
2023-04-26T00:05:58.110Z,9.719295
2023-04-26T00:06:58.074Z,9.719225
2023-04-26T00:07:58.049Z,9.719225
2023-04-26T00:08:58.066Z,9.719243
2023-04-26T00:09:58.046Z,9.719292
2023-04-26T00:10:58.028Z,9.719209
2023-04-26T00:11:58.029Z,9.719216
2023-04-26T00:12:58.030Z,9.719116
2023-04-26T00:13:58.017Z,9.719173
2023-04-26T00:14:57.986Z,9.719205
2023-04-26T00:15:58.068Z,9.719329
2023-04-26T00:16:57.964Z,9.719318
2023-04-26T00:17:58.067Z,9.719087
2023-04-26T00:18:58.003Z,9.719244
2023-04-26T00:19:57.945Z,9.719168
2023-04-26T00:20:57.967Z,9.719147
2023-04-26T00:21:57.955Z,9.719223
2023-04-26T00:22:57.933Z,9.719201
2023-04-26T00:23:57.918Z,9.719234
2023-04-26T00:24:57.936Z,9.719233
2023-04-26T00:25:57.898Z,9.719318
2023-04-26T00:26:57.891Z,9.719315
2023-04-26T00:27:57.860Z,9.719273
2023-04-26T00:28:57.902Z,9.719242
2023-04-26T00:29:57.849Z,9.719236
2023-04-26T00:30:57.864Z,9.719163
2023-04-26T00:31:57.872Z,9.719030
2023-04-26T00:32:57.884Z,9.719222
2023-04-26T00:33:57.829Z,9.719299
2023-04-26T00:34:57.816Z,9.719468
2023-04-26T00:35:57.781Z,9.719494
2023-04-26T00:36:57.771Z,9.719357
2023-04-26T00:37:57.762Z,9.719158
2023-04-26T00:38:57.758Z,9.719218
2023-04-26T00:39:57.785Z,9.719419
2023-04-26T00:40:57.751Z,9.719189
2023-04-26T00:41:57.714Z,9.719545
2023-04-26T00:42:57.713Z,9.719481
2023-04-26T00:43:57.702Z,9.719127
2023-04-26T00:44:57.872Z,9.719021
2023-04-26T00:45:57.762Z,9.719284
2023-04-26T00:46:57.675Z,9.719414
2023-04-26T00:47:57.683Z,9.719517
2023-04-26T00:48:57.650Z,9.719500
2023-04-26T00:49:57.676Z,9.719374
2023-04-26T00:50:57.664Z,9.719608
2023-04-26T00:51:57.634Z,9.719378
2023-04-26T00:52:57.636Z,9.719432
2023-04-26T00:53:57.600Z,9.719336
2023-04-26T00:54:57.602Z,9.719444
2023-04-26T00:55:57.639Z,9.719547
2023-04-26T00:56:57.661Z,9.719522
2023-04-26T00:57:57.566Z,9.719421
2023-04-26T00:58:57.641Z,9.719376
2023-04-26T00:59:57.553Z,9.719436
2023-04-26T01:00:57.586Z,9.719479
2023-04-26T01:01:57.651Z,9.719315
2023-04-26T01:02:57.591Z,9.719337
2023-04-26T01:03:57.590Z,9.719462
2023-04-26T01:04:57.495Z,9.719194
2023-04-26T01:05:57.504Z,9.719326
2023-04-26T01:06:57.472Z,9.719449
2023-04-26T01:07:57.461Z,9.719542
2023-04-26T01:08:57.461Z,9.719280
2023-04-26T01:09:57.458Z,9.719284
2023-04-26T01:10:57.464Z,9.719357
2023-04-26T01:11:57.434Z,9.719443
2023-04-26T01:12:57.436Z,9.719508
2023-04-26T01:13:57.413Z,9.719366
2023-04-26T01:14:57.407Z,9.719454
2023-04-26T01:15:57.500Z,9.719516
2023-04-26T01:16:57.475Z,9.719443
2023-04-26T01:17:57.435Z,9.719460
2023-04-26T01:18:57.380Z,9.719481
2023-04-26T01:19:57.355Z,9.719357
2023-04-26T01:20:57.349Z,9.719401
2023-04-26T01:21:57.339Z,9.719383
2023-04-26T01:22:57.328Z,9.719369
2023-04-26T01:23:57.339Z,9.719268
2023-04-26T01:24:57.306Z,9.719310
2023-04-26T01:25:57.307Z,9.719299
2023-04-26T01:26:57.290Z,9.719476
2023-04-26T01:27:57.287Z,9.719318
2023-04-26T01:28:57.331Z,9.719405
2023-04-26T01:29:57.256Z,9.719330
2023-04-26T01:30:57.272Z,9.719425
2023-04-26T01:31:57.239Z,9.719471
2023-04-26T01:32:57.272Z,9.719372
2023-04-26T01:33:57.209Z,9.719349
2023-04-26T01:34:57.251Z,9.719237
2023-04-26T01:35:57.221Z,9.719315
2023-04-26T01:36:57.193Z,9.719249
2023-04-26T01:37:57.196Z,9.719253
2023-04-26T01:38:57.150Z,9.719429
2023-04-26T01:39:57.184Z,9.719347
2023-04-26T01:40:57.182Z,9.719451
2023-04-26T01:41:57.132Z,9.719279
2023-04-26T01:42:57.148Z,9.719377
2023-04-26T01:43:57.121Z,9.719445
2023-04-26T01:44:57.114Z,9.719461
2023-04-26T01:45:57.117Z,9.719408
2023-04-26T01:46:57.084Z,9.719426
2023-04-26T01:47:57.117Z,9.719462
2023-04-26T01:48:57.075Z,9.719523
2023-04-26T01:49:57.052Z,9.719604
2023-04-26T01:50:57.059Z,9.719449
2023-04-26T01:51:57.126Z,9.719390
2023-04-26T01:52:58.060Z,9.719189
2023-04-26T01:53:57.027Z,9.719308
2023-04-26T01:54:57.002Z,9.719391
2023-04-26T01:55:57.026Z,9.719233
2023-04-26T01:56:56.988Z,9.719216
2023-04-26T01:57:57.005Z,9.719719
2023-04-26T01:58:56.963Z,9.719597
2023-04-26T01:59:56.960Z,9.719289
2023-04-26T02:00:56.996Z,9.719381
2023-04-26T02:01:56.981Z,9.719250
2023-04-26T02:02:56.998Z,9.719159
2023-04-26T02:03:56.933Z,9.719460
2023-04-26T02:04:56.925Z,9.719410
2023-04-26T02:05:56.908Z,9.719377
2023-04-26T02:06:56.947Z,9.719377
2023-04-26T02:07:56.901Z,9.719249
2023-04-26T02:08:56.885Z,9.719188
2023-04-26T02:09:56.864Z,9.719215
2023-04-26T02:10:56.859Z,9.719279
2023-04-26T02:11:56.844Z,9.719249
2023-04-26T02:12:56.849Z,9.719308
2023-04-26T02:13:56.834Z,9.719271
2023-04-26T02:14:56.833Z,9.719326
2023-04-26T02:15:56.860Z,9.719319
2023-04-26T02:16:57.783Z,9.719293
2023-04-26T02:17:56.859Z,9.719286
2023-04-26T02:18:56.775Z,9.719275
2023-04-26T02:19:56.781Z,9.719279
2023-04-26T02:20:56.797Z,9.719232
2023-04-26T02:21:56.756Z,9.719279
2023-04-26T02:22:56.736Z,9.719265
2023-04-26T02:23:56.731Z,9.719242
2023-04-26T02:24:56.720Z,9.719245
2023-04-26T02:25:56.859Z,9.719234
2023-04-26T02:26:56.698Z,9.719213
2023-04-26T02:27:56.704Z,9.719242
2023-04-26T02:28:56.676Z,9.719275
2023-04-26T02:29:56.703Z,9.719247
2023-04-26T02:30:56.735Z,9.719170
2023-04-26T02:31:56.805Z,9.719253
2023-04-26T02:32:56.700Z,9.719236
2023-04-26T02:33:56.627Z,9.719276
2023-04-26T02:34:56.622Z,9.719235
2023-04-26T02:35:56.616Z,9.719217
2023-04-26T02:36:56.599Z,9.719204
2023-04-26T02:37:56.608Z,9.719194
2023-04-26T02:38:56.572Z,9.719347
2023-04-26T02:39:56.567Z,9.719329
2023-04-26T02:40:56.659Z,9.719240
2023-04-26T02:41:56.550Z,9.719272
2023-04-26T02:42:56.543Z,9.719071
2023-04-26T02:43:56.558Z,9.719139
2023-04-26T02:44:56.519Z,9.719039
2023-04-26T02:45:56.513Z,9.719220
2023-04-26T02:46:56.554Z,9.719136
2023-04-26T02:47:56.549Z,9.719217
2023-04-26T02:48:56.496Z,9.719161
2023-04-26T02:49:56.470Z,9.719175
2023-04-26T02:50:56.461Z,9.719130
2023-04-26T02:51:56.501Z,9.719141
2023-04-26T02:52:56.471Z,9.719162
2023-04-26T02:53:56.440Z,9.719183
2023-04-26T02:54:56.429Z,9.719113
2023-04-26T02:55:56.410Z,9.719157
2023-04-26T02:56:56.392Z,9.719138
2023-04-26T02:57:56.466Z,9.719225
2023-04-26T02:58:56.385Z,9.719125
2023-04-26T02:59:56.376Z,9.719340
2023-04-26T03:00:57.437Z,9.719276
2023-04-26T03:01:56.400Z,9.719409
2023-04-26T03:02:56.419Z,9.719572
2023-04-26T03:03:56.484Z,9.719166
2023-04-26T03:04:56.344Z,9.719073
2023-04-26T03:06:28.270Z,9.719138
2023-04-26T03:06:56.301Z,9.719278
2023-04-26T03:07:56.317Z,9.719324
2023-04-26T03:08:56.299Z,9.719384
2023-04-26T03:09:56.298Z,9.719245
2023-04-26T03:10:56.298Z,9.719178
2023-04-26T03:11:56.261Z,9.719215
2023-04-26T03:12:56.301Z,9.719216
2023-04-26T03:13:56.247Z,9.719313
2023-04-26T03:14:56.248Z,9.719238
2023-04-26T03:15:56.230Z,9.719159
2023-04-26T03:16:56.248Z,9.719109
2023-04-26T03:17:56.249Z,9.719102
2023-04-26T03:18:56.199Z,9.719290
2023-04-26T03:19:56.210Z,9.719430
2023-04-26T03:20:56.201Z,9.719296
2023-04-26T03:21:56.180Z,9.719260
2023-04-26T03:22:56.180Z,9.719212
2023-04-26T03:23:56.157Z,9.719199
2023-04-26T03:24:56.136Z,9.719199
2023-04-26T03:25:56.179Z,9.719277
2023-04-26T03:26:56.114Z,9.719366
2023-04-26T03:27:56.121Z,9.719299
2023-04-26T03:28:56.112Z,9.719281
2023-04-26T03:29:56.099Z,9.719201
2023-04-26T03:30:56.098Z,9.719197
2023-04-26T03:31:56.121Z,9.719332
2023-04-26T03:32:56.085Z,9.719184
2023-04-26T03:33:56.073Z,9.719228
2023-04-26T03:34:56.107Z,9.719245
2023-04-26T03:35:56.066Z,9.719109
2023-04-26T03:36:56.190Z,9.719192
2023-04-26T03:37:58.492Z,9.719303
2023-04-26T03:38:57.014Z,9.719398
2023-04-26T03:39:55.996Z,9.719297
2023-04-26T03:40:55.987Z,9.719240
2023-04-26T03:41:56.028Z,9.719117
2023-04-26T03:42:55.987Z,9.719081
2023-04-26T03:43:56.002Z,9.719178
2023-04-26T03:44:55.952Z,9.719335
2023-04-26T03:45:55.948Z,9.719150
2023-04-26T03:46:55.953Z,9.719258
2023-04-26T03:47:55.988Z,9.719286
2023-04-26T03:48:55.914Z,9.719347
2023-04-26T03:49:55.916Z,9.719276
2023-04-26T03:50:55.946Z,9.719175
2023-04-26T03:51:55.889Z,9.719237
2023-04-26T03:52:55.943Z,9.719133
2023-04-26T03:53:55.866Z,9.719106
2023-04-26T03:54:55.854Z,9.719190
2023-04-26T03:55:55.885Z,9.719188
2023-04-26T03:56:55.855Z,9.719255
2023-04-26T03:57:55.819Z,9.719288
2023-04-26T03:58:55.816Z,9.719197
2023-04-26T03:59:55.807Z,9.719090
2023-04-26T04:00:55.838Z,9.719034
2023-04-26T04:01:55.876Z,9.719206
2023-04-26T04:02:55.866Z,9.719331
2023-04-26T04:03:56.038Z,9.719158
2023-04-26T04:04:55.941Z,9.718969
2023-04-26T04:05:55.735Z,9.718979
2023-04-26T04:06:55.736Z,9.719135
2023-04-26T04:07:55.758Z,9.719133
2023-04-26T04:08:55.777Z,9.719037
2023-04-26T04:09:55.728Z,9.719128
2023-04-26T04:10:55.729Z,9.719199
2023-04-26T04:11:55.681Z,9.719118
2023-04-26T04:12:55.697Z,9.719008
2023-04-26T04:13:55.674Z,9.719107
2023-04-26T04:14:55.676Z,9.719620
2023-04-26T04:15:55.673Z,9.719368
2023-04-26T04:16:55.670Z,9.718913
2023-04-26T04:17:55.702Z,9.719169
2023-04-26T04:18:55.629Z,9.719115
2023-04-26T04:19:55.621Z,9.719223
2023-04-26T04:20:55.641Z,9.719056
2023-04-26T04:21:55.596Z,9.719188
2023-04-26T04:22:55.596Z,9.719140
2023-04-26T04:23:55.588Z,9.719381
2023-04-26T04:24:55.587Z,9.719386
2023-04-26T04:25:55.563Z,9.719198
2023-04-26T04:26:55.552Z,9.719226
2023-04-26T04:27:55.547Z,9.718772
2023-04-26T04:28:55.545Z,9.719303
2023-04-26T04:29:55.535Z,9.719173
2023-04-26T04:30:55.577Z,9.718919
2023-04-26T04:31:55.516Z,9.719068
2023-04-26T04:32:55.548Z,9.718904
2023-04-26T04:33:55.503Z,9.719207
2023-04-26T04:34:56.460Z,9.719258
2023-04-26T04:35:55.479Z,9.718745
2023-04-26T04:36:55.529Z,9.718542
2023-04-26T04:37:55.640Z,9.718884
2023-04-26T04:38:55.465Z,9.718521
2023-04-26T04:39:55.421Z,9.718572
2023-04-26T04:40:55.500Z,9.719145
2023-04-26T04:41:55.439Z,9.718808
2023-04-26T04:42:55.608Z,9.719338
2023-04-26T04:43:55.430Z,9.719234
2023-04-26T04:44:55.429Z,9.719091
2023-04-26T04:45:55.422Z,9.719252
2023-04-26T04:46:55.440Z,9.719145
2023-04-26T04:47:55.554Z,9.718958
2023-04-26T04:48:55.409Z,9.719135
2023-04-26T04:49:55.460Z,9.719024
2023-04-26T04:50:55.316Z,9.718784
2023-04-26T04:51:55.314Z,9.719000
2023-04-26T04:52:55.316Z,9.719022
2023-04-26T04:53:55.280Z,9.718960
2023-04-26T04:54:55.291Z,9.719058
2023-04-26T04:55:55.257Z,9.719025
2023-04-26T04:56:55.244Z,9.719015
2023-04-26T04:57:55.274Z,9.719105
2023-04-26T04:58:55.236Z,9.719168
2023-04-26T04:59:55.245Z,9.719137
2023-04-26T05:00:55.214Z,9.719085
2023-04-26T05:01:55.248Z,9.719126
2023-04-26T05:02:55.320Z,9.719187
2023-04-26T05:03:55.641Z,9.719092
2023-04-26T05:04:55.202Z,9.719123
2023-04-26T05:05:55.190Z,9.719333
2023-04-26T05:06:55.160Z,9.719237
2023-04-26T05:07:55.164Z,9.719176
2023-04-26T05:08:55.158Z,9.719200
2023-04-26T05:09:55.157Z,9.719231
2023-04-26T05:10:55.141Z,9.719155
2023-04-26T05:11:55.124Z,9.719208
2023-04-26T05:12:55.104Z,9.719236
2023-04-26T05:13:55.203Z,9.719213
2023-04-26T05:14:55.084Z,9.719235
2023-04-26T05:15:55.142Z,9.719182
2023-04-26T05:16:55.145Z,9.719217
2023-04-26T05:17:55.109Z,9.719184
2023-04-26T05:18:55.062Z,9.719112
2023-04-26T05:19:55.030Z,9.719039
2023-04-26T05:20:55.038Z,9.719074
2023-04-26T05:21:55.016Z,9.719193
2023-04-26T05:22:54.983Z,9.719231
2023-04-26T05:23:55.226Z,9.719180
2023-04-26T05:24:55.013Z,9.719108
2023-04-26T05:25:55.088Z,9.718639
2023-04-26T05:26:54.966Z,9.718555
2023-04-26T05:27:54.942Z,9.718555
2023-04-26T05:28:54.970Z,9.718555
2023-04-26T05:29:54.928Z,9.718558
2023-04-26T05:30:54.938Z,9.718672
2023-04-26T05:31:54.951Z,9.719418
2023-04-26T05:32:54.961Z,9.718908
2023-04-26T05:33:55.004Z,9.719279
2023-04-26T05:34:54.908Z,9.718972
2023-04-26T05:35:54.878Z,9.719378
2023-04-26T05:36:54.863Z,9.719091
2023-04-26T05:37:54.886Z,9.719291
2023-04-26T05:38:54.870Z,9.719037
2023-04-26T05:39:54.861Z,9.719356
2023-04-26T05:40:54.855Z,9.719792
2023-04-26T05:41:54.823Z,9.719619
2023-04-26T05:42:54.822Z,9.719367
2023-04-26T05:43:55.047Z,9.719314
2023-04-26T05:44:54.805Z,9.719131
2023-04-26T05:45:54.853Z,9.719448
2023-04-26T05:46:54.811Z,9.719420
2023-04-26T05:47:54.777Z,9.719222
2023-04-26T05:48:54.743Z,9.719349
2023-04-26T05:49:54.756Z,9.719705
2023-04-26T05:50:54.744Z,9.719207
2023-04-26T05:51:54.773Z,9.719426
2023-04-26T05:52:54.701Z,9.719465
2023-04-26T05:53:54.935Z,9.719225
2023-04-26T05:54:54.689Z,9.719264
2023-04-26T05:55:54.693Z,9.719275
2023-04-26T05:56:55.193Z,9.719229
2023-04-26T05:57:54.699Z,9.719049
2023-04-26T05:58:54.667Z,9.719189
2023-04-26T05:59:54.635Z,9.719399
2023-04-26T06:00:54.654Z,9.719451
2023-04-26T06:01:54.632Z,9.719362
2023-04-26T06:02:54.806Z,9.719469
2023-04-26T06:03:58.065Z,9.719376
2023-04-26T06:04:55.864Z,9.719644
2023-04-26T06:05:54.688Z,9.719767
2023-04-26T06:06:54.614Z,9.719578
2023-04-26T06:07:54.561Z,9.719209
2023-04-26T06:08:54.575Z,9.719256
2023-04-26T06:09:54.548Z,9.719301
2023-04-26T06:10:54.573Z,9.719280
2023-04-26T06:11:54.544Z,9.719287
2023-04-26T06:12:54.500Z,9.719410
2023-04-26T06:13:54.762Z,9.719334
2023-04-26T06:14:54.504Z,9.719486
2023-04-26T06:15:54.494Z,9.719616
2023-04-26T06:16:54.558Z,9.719380
2023-04-26T06:17:54.540Z,9.719383
2023-04-26T06:18:54.464Z,9.719368
2023-04-26T06:19:54.464Z,9.719386
2023-04-26T06:20:54.442Z,9.719472
2023-04-26T06:21:54.429Z,9.719310
2023-04-26T06:22:54.461Z,9.719236
2023-04-26T06:23:54.748Z,9.719431
2023-04-26T06:24:54.446Z,9.719435
2023-04-26T06:25:54.414Z,9.719122
2023-04-26T06:26:54.374Z,9.719225
2023-04-26T06:27:54.387Z,9.719328
2023-04-26T06:28:54.366Z,9.719333
2023-04-26T06:29:54.352Z,9.719455
2023-04-26T06:30:54.400Z,9.719314
2023-04-26T06:31:54.333Z,9.719283
2023-04-26T06:32:54.374Z,9.719446
2023-04-26T06:33:54.497Z,9.719277
2023-04-26T06:34:54.313Z,9.719117
2023-04-26T06:35:54.315Z,9.719322
2023-04-26T06:36:54.294Z,9.719347
2023-04-26T06:37:54.301Z,9.719249
2023-04-26T06:38:54.272Z,9.719178
2023-04-26T06:39:54.271Z,9.719073
2023-04-26T06:40:54.271Z,9.719192
2023-04-26T06:41:54.244Z,9.718943
2023-04-26T06:42:54.269Z,9.719253
2023-04-26T06:43:54.347Z,9.719151
2023-04-26T06:44:54.274Z,9.719207
2023-04-26T06:45:54.243Z,9.719131
2023-04-26T06:46:54.218Z,9.719094
2023-04-26T06:47:54.260Z,9.719144
2023-04-26T06:48:54.179Z,9.719155
2023-04-26T06:49:54.168Z,9.719213
2023-04-26T06:50:54.181Z,9.719213
2023-04-26T06:51:54.144Z,9.719315
2023-04-26T06:52:54.393Z,9.719365
2023-04-26T06:53:54.313Z,9.719330
2023-04-26T06:54:57.306Z,9.719304
2023-04-26T06:55:55.117Z,9.719223
2023-04-26T06:56:54.095Z,9.719267
2023-04-26T06:57:54.102Z,9.719291
2023-04-26T06:58:54.098Z,9.719259
2023-04-26T06:59:54.070Z,9.719293
2023-04-26T07:00:54.053Z,9.719312
2023-04-26T07:01:54.075Z,9.719390
2023-04-26T07:02:54.133Z,9.719469
2023-04-26T07:03:54.236Z,9.719198
2023-04-26T07:04:54.151Z,9.719278
2023-04-26T07:05:54.012Z,9.719213
2023-04-26T07:06:54.013Z,9.719225
2023-04-26T07:07:54.015Z,9.719230
2023-04-26T07:08:54.455Z,9.719318
2023-04-26T07:09:53.974Z,9.719245
2023-04-26T07:10:53.999Z,9.719150
2023-04-26T07:11:53.962Z,9.719101
2023-04-26T07:12:53.941Z,9.719444
2023-04-26T07:13:54.257Z,9.719358
2023-04-26T07:14:53.936Z,9.719379
2023-04-26T07:15:53.914Z,9.719419
2023-04-26T07:16:53.908Z,9.719257
2023-04-26T07:17:53.957Z,9.719268
2023-04-26T07:18:53.884Z,9.719358
2023-04-26T07:19:55.540Z,9.719183
2023-04-26T07:20:53.868Z,9.719209
2023-04-26T07:21:53.860Z,9.719074
2023-04-26T07:22:53.872Z,9.719242
2023-04-26T07:23:54.008Z,9.719240
2023-04-26T07:24:54.049Z,9.719329
2023-04-26T07:25:55.252Z,9.719344
2023-04-26T07:26:53.829Z,9.719300
2023-04-26T07:27:53.806Z,9.719246
2023-04-26T07:28:53.802Z,9.719145
2023-04-26T07:29:53.778Z,9.719226
2023-04-26T07:30:53.773Z,9.719266
2023-04-26T07:31:53.785Z,9.719254
2023-04-26T07:32:53.779Z,9.719166
2023-04-26T07:33:54.088Z,9.719175
2023-04-26T07:34:53.754Z,9.719420
2023-04-26T07:35:53.719Z,9.719317
2023-04-26T07:36:53.732Z,9.719453
2023-04-26T07:37:53.709Z,9.719438
2023-04-26T07:38:53.696Z,9.719423
2023-04-26T07:39:53.707Z,9.719212
2023-04-26T07:40:53.679Z,9.719324
2023-04-26T07:41:53.666Z,9.719433
2023-04-26T07:42:53.662Z,9.719367
2023-04-26T07:43:54.867Z,9.719124
2023-04-26T07:44:53.639Z,9.719283
2023-04-26T07:45:53.671Z,9.719317
2023-04-26T07:46:53.615Z,9.719376
2023-04-26T07:47:53.676Z,9.719355
2023-04-26T07:48:53.601Z,9.719438
2023-04-26T07:49:53.585Z,9.719489
2023-04-26T07:50:53.587Z,9.719384
2023-04-26T07:51:53.590Z,9.719407
2023-04-26T07:52:53.570Z,9.719339
2023-04-26T07:53:53.871Z,9.719385
2023-04-26T07:54:53.553Z,9.719215
2023-04-26T07:55:53.532Z,9.719420
2023-04-26T07:56:53.515Z,9.719314
2023-04-26T07:57:53.544Z,9.719275
2023-04-26T07:58:53.528Z,9.719372
2023-04-26T07:59:53.507Z,9.719394
2023-04-26T08:00:53.510Z,9.719150
2023-04-26T08:01:53.506Z,9.719325
2023-04-26T08:02:53.657Z,9.719549
2023-04-26T08:03:53.876Z,9.719637
2023-04-26T08:04:53.664Z,9.719448
2023-04-26T08:05:53.487Z,9.719265
2023-04-26T08:06:53.507Z,9.719298
2023-04-26T08:07:53.443Z,9.719009
2023-04-26T08:08:53.413Z,9.719002
2023-04-26T08:09:53.419Z,9.719287
2023-04-26T08:10:53.410Z,9.719557
2023-04-26T08:11:53.463Z,9.719571
2023-04-26T08:12:53.382Z,9.719247
2023-04-26T08:13:53.527Z,9.719219
2023-04-26T08:14:53.363Z,9.719232
2023-04-26T08:15:53.327Z,9.719328
2023-04-26T08:16:53.333Z,9.719248
2023-04-26T08:17:53.430Z,9.719252
2023-04-26T08:18:53.298Z,9.719258
2023-04-26T08:19:53.319Z,9.719238
2023-04-26T08:20:53.281Z,9.719221
2023-04-26T08:21:53.285Z,9.719267
2023-04-26T08:22:53.283Z,9.719304
2023-04-26T08:23:53.420Z,9.719311
2023-04-26T08:24:53.425Z,9.719252
2023-04-26T08:25:53.229Z,9.719205
2023-04-26T08:26:53.233Z,9.719372
2023-04-26T08:27:53.206Z,9.719339
2023-04-26T08:28:53.278Z,9.719262
2023-04-26T08:29:53.185Z,9.719270
2023-04-26T08:30:53.212Z,9.719359
2023-04-26T08:31:53.184Z,9.719233
2023-04-26T08:32:53.166Z,9.719294
2023-04-26T08:33:53.350Z,9.719238
2023-04-26T08:34:53.160Z,9.719258
2023-04-26T08:35:53.169Z,9.719186
2023-04-26T08:36:53.141Z,9.719179
2023-04-26T08:37:53.113Z,9.719111
2023-04-26T08:38:53.106Z,9.719224
2023-04-26T08:39:53.089Z,9.719209
2023-04-26T08:40:53.075Z,9.719236
2023-04-26T08:41:53.092Z,9.719193
2023-04-26T08:42:53.065Z,9.719164
2023-04-26T08:43:53.238Z,9.719176
2023-04-26T08:44:53.046Z,9.719270
2023-04-26T08:45:53.160Z,9.719319
2023-04-26T08:46:53.050Z,9.719234
2023-04-26T08:47:53.070Z,9.719277
2023-04-26T08:48:53.016Z,9.719250
2023-04-26T08:49:53.011Z,9.719206
2023-04-26T08:50:53.004Z,9.719262
2023-04-26T08:51:52.991Z,9.719173
2023-04-26T08:52:53.005Z,9.719119
2023-04-26T08:53:53.282Z,9.719215
2023-04-26T08:54:52.948Z,9.719213
2023-04-26T08:55:52.944Z,9.719208
2023-04-26T08:56:52.978Z,9.719223
2023-04-26T08:57:52.958Z,9.719224
2023-04-26T08:58:52.916Z,9.719194
2023-04-26T08:59:52.917Z,9.719100
2023-04-26T09:00:52.897Z,9.719112
2023-04-26T09:01:52.964Z,9.719087
2023-04-26T09:02:53.358Z,9.719183
2023-04-26T09:03:53.138Z,9.719109
2023-04-26T09:04:53.141Z,9.719122
2023-04-26T09:05:52.849Z,9.719077
2023-04-26T09:07:24.803Z,9.719112
2023-04-26T09:07:52.850Z,9.719222
2023-04-26T09:08:52.850Z,9.719127
2023-04-26T09:09:52.813Z,9.719026
2023-04-26T09:10:52.816Z,9.719151
2023-04-26T09:11:52.848Z,9.719122
2023-04-26T09:12:52.802Z,9.719020
2023-04-26T09:13:53.019Z,9.718989
2023-04-26T09:14:52.757Z,9.719094
2023-04-26T09:15:52.767Z,9.719147
2023-04-26T09:16:52.751Z,9.719161
2023-04-26T09:17:52.845Z,9.719087
2023-04-26T09:18:53.213Z,9.719225
2023-04-26T09:19:52.732Z,9.719273
2023-04-26T09:20:52.727Z,9.719297
2023-04-26T09:21:52.697Z,9.719232
2023-04-26T09:22:52.684Z,9.719139
2023-04-26T09:23:52.675Z,9.719124
2023-04-26T09:24:52.710Z,9.719319
2023-04-26T09:25:52.645Z,9.719245
2023-04-26T09:26:52.656Z,9.719248
2023-04-26T09:27:52.655Z,9.719225
2023-04-26T09:28:52.865Z,9.719084
2023-04-26T09:29:52.601Z,9.719144
2023-04-26T09:30:52.625Z,9.719286
2023-04-26T09:31:52.746Z,9.719321
2023-04-26T09:32:52.633Z,9.719191
2023-04-26T09:33:52.581Z,9.719150
2023-04-26T09:34:52.565Z,9.719108
2023-04-26T09:35:52.571Z,9.719140
2023-04-26T09:36:52.538Z,9.719187
2023-04-26T09:37:59.393Z,9.719170
2023-04-26T09:38:54.532Z,9.719242
2023-04-26T09:39:52.517Z,9.719233
2023-04-26T09:40:52.523Z,9.719254
2023-04-26T09:41:52.522Z,9.719276
2023-04-26T09:42:52.524Z,9.719054
2023-04-26T09:43:52.488Z,9.718955
2023-04-26T09:44:52.523Z,9.719018
2023-04-26T09:45:52.455Z,9.718912
2023-04-26T09:46:52.500Z,9.719111
2023-04-26T09:47:52.522Z,9.719044
2023-04-26T09:48:52.666Z,9.718923
2023-04-26T09:49:52.420Z,9.718843
2023-04-26T09:50:52.615Z,9.718976
2023-04-26T09:51:52.395Z,9.719125
2023-04-26T09:52:52.409Z,9.719051
2023-04-26T09:53:53.178Z,9.718921
2023-04-26T09:54:52.385Z,9.718869
2023-04-26T09:55:52.356Z,9.719096
2023-04-26T09:56:52.363Z,9.719026
2023-04-26T09:57:52.334Z,9.719029
2023-04-26T09:58:52.683Z,9.719161
2023-04-26T09:59:54.381Z,9.719018
2023-04-26T10:00:53.578Z,9.719181
2023-04-26T10:01:52.297Z,9.719069
2023-04-26T10:02:52.406Z,9.719087
2023-04-26T10:03:52.464Z,9.719128
2023-04-26T10:04:52.398Z,9.719062
2023-04-26T10:05:52.267Z,9.719056
2023-04-26T10:06:52.251Z,9.719095
2023-04-26T10:07:52.233Z,9.719110
2023-04-26T10:08:52.590Z,9.719054
2023-04-26T10:09:52.231Z,9.719089
2023-04-26T10:10:52.225Z,9.719122
2023-04-26T10:11:52.210Z,9.719112
2023-04-26T10:12:52.200Z,9.719122
2023-04-26T10:13:52.221Z,9.719085
2023-04-26T10:14:52.205Z,9.719125
2023-04-26T10:15:52.164Z,9.719049
2023-04-26T10:16:52.225Z,9.719090
2023-04-26T10:17:52.311Z,9.719170
2023-04-26T10:18:53.326Z,9.719135
2023-04-26T10:19:52.130Z,9.719185
2023-04-26T10:20:52.124Z,9.719167
2023-04-26T10:21:52.100Z,9.719123
2023-04-26T10:22:52.098Z,9.719245
2023-04-26T10:23:52.096Z,9.719149
2023-04-26T10:24:52.095Z,9.719175
2023-04-26T10:25:52.066Z,9.719192
2023-04-26T10:26:52.135Z,9.719111
2023-04-26T10:27:52.044Z,9.719241
2023-04-26T10:28:56.158Z,9.719147
2023-04-26T10:29:54.058Z,9.719111
2023-04-26T10:30:52.046Z,9.719127
2023-04-26T10:31:52.079Z,9.719115
2023-04-26T10:32:52.009Z,9.719176
2023-04-26T10:33:51.983Z,9.719178
2023-04-26T10:34:51.970Z,9.719176
2023-04-26T10:35:52.015Z,9.719063
2023-04-26T10:36:51.973Z,9.718996
2023-04-26T10:37:51.939Z,9.718945
2023-04-26T10:38:52.116Z,9.719191
2023-04-26T10:39:51.920Z,9.719268
2023-04-26T10:40:53.377Z,9.719256
2023-04-26T10:41:51.896Z,9.719233
2023-04-26T10:42:51.900Z,9.719138
2023-04-26T10:43:52.064Z,9.719064
2023-04-26T10:44:51.904Z,9.719091
2023-04-26T10:45:52.005Z,9.719146
2023-04-26T10:46:51.864Z,9.719138
2023-04-26T10:47:51.889Z,9.719024
2023-04-26T10:48:51.949Z,9.719106
2023-04-26T10:49:52.821Z,9.719181
2023-04-26T10:50:51.812Z,9.719293
2023-04-26T10:51:51.806Z,9.719206
2023-04-26T10:52:52.865Z,9.719170
2023-04-26T10:53:52.124Z,9.719197
2023-04-26T10:54:51.773Z,9.719231
2023-04-26T10:55:51.775Z,9.719193
2023-04-26T10:56:51.772Z,9.719159
2023-04-26T10:57:51.765Z,9.719143
2023-04-26T10:58:51.745Z,9.719253
2023-04-26T10:59:54.637Z,9.719406
2023-04-26T11:00:52.707Z,9.719325
2023-04-26T11:01:51.747Z,9.719246
2023-04-26T11:02:52.898Z,9.719214
2023-04-26T11:03:53.040Z,9.719167
2023-04-26T11:04:51.778Z,9.719242
2023-04-26T11:05:51.684Z,9.719238
2023-04-26T11:06:51.678Z,9.719266
2023-04-26T11:07:51.664Z,9.719252
2023-04-26T11:08:51.967Z,9.719217
2023-04-26T11:09:51.635Z,9.719154
2023-04-26T11:10:51.640Z,9.719186
2023-04-26T11:11:51.624Z,9.719135
2023-04-26T11:12:51.605Z,9.719170
2023-04-26T11:13:51.611Z,9.719189
2023-04-26T11:14:51.610Z,9.719220
2023-04-26T11:15:52.671Z,9.719108
2023-04-26T11:16:52.569Z,9.719185
2023-04-26T11:17:51.828Z,9.719219
2023-04-26T11:18:51.828Z,9.719144
2023-04-26T11:19:51.547Z,9.719091
2023-04-26T11:20:52.530Z,9.718960
2023-04-26T11:21:51.524Z,9.719109
2023-04-26T11:22:51.504Z,9.719073
2023-04-26T11:23:51.524Z,9.719107
2023-04-26T11:24:51.481Z,9.719283
2023-04-26T11:25:51.519Z,9.719246
2023-04-26T11:26:51.496Z,9.719154
2023-04-26T11:27:51.463Z,9.719067
2023-04-26T11:28:51.677Z,9.718948
2023-04-26T11:29:51.439Z,9.718966
2023-04-26T11:30:51.439Z,9.718994
2023-04-26T11:31:51.564Z,9.718991
2023-04-26T11:32:51.676Z,9.719050
2023-04-26T11:33:51.399Z,9.719051
2023-04-26T11:34:51.399Z,9.719113
2023-04-26T11:35:51.394Z,9.719361
2023-04-26T11:36:51.505Z,9.719257
2023-04-26T11:37:51.389Z,9.719214
2023-04-26T11:38:51.554Z,9.719206
2023-04-26T11:39:51.360Z,9.719086
2023-04-26T11:40:51.341Z,9.719198
2023-04-26T11:41:51.369Z,9.719259
2023-04-26T11:42:51.317Z,9.719481
2023-04-26T11:43:51.339Z,9.719512
2023-04-26T11:44:51.292Z,9.719156